Terminal Aerodrome Forecast
Issued by NWS Cleveland, OH

Home | Current Version | Previous Version | Graphics & Text | Print | Product List | Glossary On
Versions: 1 2 3 4 5 6 7 8 9 10 11 12 13 14 15
000
FTUS41 KCLE 190545
TAFYNG
TAF
KYNG 190545Z 1906/2006 03008KT P6SM -RASN OVC060
     FM190700 06006KT P6SM VCSH OVC012
     FM190900 34012KT 4SM -SN OVC006
      TEMPO 1909/1911 2SM -SN OVC006
     FM191400 34012G20KT P6SM VCSH OVC012
     FM191900 32012G20KT P6SM OVC021
     FM192300 32008KT P6SM BKN018=

USA.gov is the U.S. government's official web portal to all federal, state and local government web resources and services.